sensor_id;sensor_type;location;lat;lon;timestamp;pressure;altitude;pressure_sealevel;temperature;humidity
51807;BME280;37865;51.304;9.536;2023-06-14T00:01:40;99862.84;;;15.01;49.66
51807;BME280;37865;51.304;9.536;2023-06-14T00:04:05;99859.59;;;14.94;49.99
51807;BME280;37865;51.304;9.536;2023-06-14T00:06:33;99863.75;;;14.87;50.40
51807;BME280;37865;51.304;9.536;2023-06-14T00:08:59;99869.25;;;14.82;50.66
51807;BME280;37865;51.304;9.536;2023-06-14T00:11:24;99873.34;;;14.79;50.71
51807;BME280;37865;51.304;9.536;2023-06-14T00:13:51;99871.47;;;14.75;50.92
51807;BME280;37865;51.304;9.536;2023-06-14T00:16:17;99872.56;;;14.74;50.94
51807;BME280;37865;51.304;9.536;2023-06-14T00:18:42;99870.06;;;14.77;51.03
51807;BME280;37865;51.304;9.536;2023-06-14T00:21:08;99876.69;;;14.81;51.21
51807;BME280;37865;51.304;9.536;2023-06-14T00:23:35;99870.91;;;14.78;51.77
51807;BME280;37865;51.304;9.536;2023-06-14T00:26:00;99871.72;;;14.73;52.00
51807;BME280;37865;51.304;9.536;2023-06-14T00:28:25;99878.34;;;14.72;52.11
51807;BME280;37865;51.304;9.536;2023-06-14T00:30:51;99883.03;;;14.67;52.14
51807;BME280;37865;51.304;9.536;2023-06-14T00:33:16;99876.72;;;14.61;52.55
51807;BME280;37865;51.304;9.536;2023-06-14T00:35:41;99883.88;;;14.57;52.79
51807;BME280;37865;51.304;9.536;2023-06-14T00:38:07;99880.31;;;14.52;52.97
51807;BME280;37865;51.304;9.536;2023-06-14T00:40:32;99877.31;;;14.43;53.40
51807;BME280;37865;51.304;9.536;2023-06-14T00:42:57;99877.84;;;14.40;53.33
51807;BME280;37865;51.304;9.536;2023-06-14T00:45:22;99882.00;;;14.37;53.31
51807;BME280;37865;51.304;9.536;2023-06-14T00:47:49;99876.22;;;14.34;53.92
51807;BME280;37865;51.304;9.536;2023-06-14T00:50:19;99872.69;;;14.33;54.29
51807;BME280;37865;51.304;9.536;2023-06-14T00:52:45;99880.91;;;14.33;54.53
51807;BME280;37865;51.304;9.536;2023-06-14T00:55:10;99872.41;;;14.35;54.46
51807;BME280;37865;51.304;9.536;2023-06-14T00:57:36;99878.16;;;14.33;54.75
51807;BME280;37865;51.304;9.536;2023-06-14T01:00:03;99879.53;;;14.31;55.34
51807;BME280;37865;51.304;9.536;2023-06-14T01:02:29;99882.53;;;14.29;55.35
51807;BME280;37865;51.304;9.536;2023-06-14T01:04:55;99881.94;;;14.27;55.62
51807;BME280;37865;51.304;9.536;2023-06-14T01:13:18;99876.50;;;14.12;56.57
51807;BME280;37865;51.304;9.536;2023-06-14T01:15:45;99882.25;;;14.06;56.98
51807;BME280;37865;51.304;9.536;2023-06-14T01:18:12;99880.31;;;13.96;57.38
51807;BME280;37865;51.304;9.536;2023-06-14T01:20:43;99884.44;;;13.89;57.75
51807;BME280;37865;51.304;9.536;2023-06-14T01:23:10;99881.97;;;13.82;58.11
51807;BME280;37865;51.304;9.536;2023-06-14T01:25:37;99891.56;;;13.75;58.59
51807;BME280;37865;51.304;9.536;2023-06-14T01:28:05;99886.31;;;13.63;59.14
51807;BME280;37865;51.304;9.536;2023-06-14T01:30:38;99889.34;;;13.51;59.75
51807;BME280;37865;51.304;9.536;2023-06-14T01:33:04;99888.47;;;13.41;60.04
51807;BME280;37865;51.304;9.536;2023-06-14T01:35:31;99890.38;;;13.25;60.53
51807;BME280;37865;51.304;9.536;2023-06-14T01:37:57;99893.59;;;13.12;60.87
51807;BME280;37865;51.304;9.536;2023-06-14T01:40:23;99882.56;;;12.97;61.65
51807;BME280;37865;51.304;9.536;2023-06-14T01:42:50;99883.59;;;12.81;62.30
51807;BME280;37865;51.304;9.536;2023-06-14T01:45:17;99890.34;;;12.68;62.81
51807;BME280;37865;51.304;9.536;2023-06-14T01:47:44;99889.53;;;12.63;63.35
51807;BME280;37865;51.304;9.536;2023-06-14T01:50:10;99891.44;;;12.62;63.56
51807;BME280;37865;51.304;9.536;2023-06-14T01:52:36;99896.28;;;12.55;64.08
51807;BME280;37865;51.304;9.536;2023-06-14T01:55:02;99898.47;;;12.48;64.17
51807;BME280;37865;51.304;9.536;2023-06-14T01:57:28;99895.94;;;12.42;64.28
51807;BME280;37865;51.304;9.536;2023-06-14T01:59:54;99893.94;;;12.32;64.99
51807;BME280;37865;51.304;9.536;2023-06-14T02:02:19;99891.47;;;12.26;65.50
51807;BME280;37865;51.304;9.536;2023-06-14T02:04:45;99895.78;;;12.22;65.23
51807;BME280;37865;51.304;9.536;2023-06-14T02:07:12;99898.22;;;12.13;65.58
51807;BME280;37865;51.304;9.536;2023-06-14T02:09:38;99904.19;;;12.10;65.88
51807;BME280;37865;51.304;9.536;2023-06-14T02:12:03;99891.84;;;12.02;65.99
51807;BME280;37865;51.304;9.536;2023-06-14T02:14:28;99904.63;;;11.97;66.40
51807;BME280;37865;51.304;9.536;2023-06-14T02:16:54;99894.16;;;11.89;66.96
51807;BME280;37865;51.304;9.536;2023-06-14T02:19:20;99900.41;;;11.84;67.62
51807;BME280;37865;51.304;9.536;2023-06-14T02:21:46;99901.44;;;11.78;68.21
51807;BME280;37865;51.304;9.536;2023-06-14T02:24:11;99904.94;;;11.74;68.20
51807;BME280;37865;51.304;9.536;2023-06-14T02:26:37;99906.03;;;11.73;68.13
51807;BME280;37865;51.304;9.536;2023-06-14T02:29:07;99907.94;;;11.72;68.57
51807;BME280;37865;51.304;9.536;2023-06-14T02:31:35;99913.97;;;11.74;69.04
51807;BME280;37865;51.304;9.536;2023-06-14T02:34:00;99913.75;;;11.76;68.86
51807;BME280;37865;51.304;9.536;2023-06-14T02:36:26;99918.31;;;11.70;69.03
51807;BME280;37865;51.304;9.536;2023-06-14T02:38:51;99917.41;;;11.65;69.46
51807;BME280;37865;51.304;9.536;2023-06-14T02:41:18;99914.63;;;11.60;69.38
51807;BME280;37865;51.304;9.536;2023-06-14T02:43:43;99915.66;;;11.54;70.37
51807;BME280;37865;51.304;9.536;2023-06-14T02:46:09;99922.44;;;11.51;70.42
51807;BME280;37865;51.304;9.536;2023-06-14T02:48:34;99920.50;;;11.47;70.21
51807;BME280;37865;51.304;9.536;2023-06-14T02:50:59;99929.41;;;11.37;70.78
51807;BME280;37865;51.304;9.536;2023-06-14T02:53:25;99922.22;;;11.31;71.15
51807;BME280;37865;51.304;9.536;2023-06-14T02:55:50;99922.75;;;11.28;71.96
51807;BME280;37865;51.304;9.536;2023-06-14T02:58:15;99930.63;;;11.24;71.47
51807;BME280;37865;51.304;9.536;2023-06-14T03:00:42;99924.59;;;11.22;72.21
51807;BME280;37865;51.304;9.536;2023-06-14T03:03:07;99927.28;;;11.17;72.50
51807;BME280;37865;51.304;9.536;2023-06-14T03:05:44;99929.16;;;11.17;72.50
51807;BME280;37865;51.304;9.536;2023-06-14T03:08:15;99931.38;;;11.20;72.39
51807;BME280;37865;51.304;9.536;2023-06-14T03:10:51;99934.09;;;11.20;73.04
51807;BME280;37865;51.304;9.536;2023-06-14T03:13:16;99934.09;;;11.20;72.17
51807;BME280;37865;51.304;9.536;2023-06-14T03:15:42;99928.06;;;11.18;72.58
51807;BME280;37865;51.304;9.536;2023-06-14T03:18:10;99932.19;;;11.20;72.66
51807;BME280;37865;51.304;9.536;2023-06-14T03:20:37;99933.31;;;11.19;72.93
51807;BME280;37865;51.304;9.536;2023-06-14T03:23:02;99937.28;;;11.12;73.41
51807;BME280;37865;51.304;9.536;2023-06-14T03:25:29;99935.84;;;11.04;72.99
51807;BME280;37865;51.304;9.536;2023-06-14T03:27:55;99937.69;;;10.99;74.06
51807;BME280;37865;51.304;9.536;2023-06-14T03:30:21;99943.06;;;10.94;73.91
51807;BME280;37865;51.304;9.536;2023-06-14T03:32:46;99944.06;;;10.88;74.30
51807;BME280;37865;51.304;9.536;2023-06-14T03:35:12;99937.72;;;10.82;74.90
51807;BME280;37865;51.304;9.536;2023-06-14T03:37:45;99935.19;;;10.76;75.28
51807;BME280;37865;51.304;9.536;2023-06-14T03:40:12;99937.81;;;10.71;75.61
51807;BME280;37865;51.304;9.536;2023-06-14T03:42:37;99942.13;;;10.67;75.86
51807;BME280;37865;51.304;9.536;2023-06-14T03:45:03;99942.06;;;10.62;76.72
51807;BME280;37865;51.304;9.536;2023-06-14T03:47:29;99949.44;;;10.61;76.60
51807;BME280;37865;51.304;9.536;2023-06-14T03:49:54;99948.84;;;10.59;76.92
51807;BME280;37865;51.304;9.536;2023-06-14T03:52:20;99952.38;;;10.60;77.35
51807;BME280;37865;51.304;9.536;2023-06-14T03:54:46;99955.69;;;10.62;77.09
51807;BME280;37865;51.304;9.536;2023-06-14T03:57:11;99965.53;;;10.63;77.39
51807;BME280;37865;51.304;9.536;2023-06-14T03:59:37;99966.09;;;10.65;77.42
51807;BME280;37865;51.304;9.536;2023-06-14T04:02:02;99976.09;;;10.76;77.14
51807;BME280;37865;51.304;9.536;2023-06-14T04:04:28;99975.88;;;10.99;77.33
51807;BME280;37865;51.304;9.536;2023-06-14T04:06:55;99976.19;;;11.24;76.30
51807;BME280;37865;51.304;9.536;2023-06-14T04:09:22;99975.91;;;11.47;75.48
51807;BME280;37865;51.304;9.536;2023-06-14T04:11:47;99975.38;;;11.67;74.66
51807;BME280;37865;51.304;9.536;2023-06-14T04:14:13;99983.47;;;11.83;74.33
51807;BME280;37865;51.304;9.536;2023-06-14T04:16:38;99989.38;;;12.02;73.58
51807;BME280;37865;51.304;9.536;2023-06-14T04:19:03;99994.19;;;12.17;73.00
51807;BME280;37865;51.304;9.536;2023-06-14T04:21:29;100004.94;;;12.28;72.45
51807;BME280;37865;51.304;9.536;2023-06-14T04:23:54;100001.47;;;12.38;71.91
51807;BME280;37865;51.304;9.536;2023-06-14T04:26:21;100010.28;;;12.45;71.67
51807;BME280;37865;51.304;9.536;2023-06-14T04:28:49;100004.06;;;12.54;71.02
51807;BME280;37865;51.304;9.536;2023-06-14T04:31:14;100008.50;;;12.60;70.95
51807;BME280;37865;51.304;9.536;2023-06-14T04:33:41;100005.78;;;12.65;71.13
51807;BME280;37865;51.304;9.536;2023-06-14T04:36:12;100013.75;;;12.72;70.35
51807;BME280;37865;51.304;9.536;2023-06-14T04:38:38;100011.63;;;12.79;70.30
51807;BME280;37865;51.304;9.536;2023-06-14T04:41:04;100017.69;;;12.86;69.77
51807;BME280;37865;51.304;9.536;2023-06-14T04:43:30;100024.59;;;12.93;69.65
51807;BME280;37865;51.304;9.536;2023-06-14T04:45:57;100024.66;;;13.04;69.31
51807;BME280;37865;51.304;9.536;2023-06-14T04:48:22;100021.16;;;13.13;68.97
51807;BME280;37865;51.304;9.536;2023-06-14T04:50:48;100021.25;;;13.23;68.86
51807;BME280;37865;51.304;9.536;2023-06-14T04:53:13;100028.69;;;13.33;68.42
51807;BME280;37865;51.304;9.536;2023-06-14T04:55:39;100019.69;;;13.42;67.90
51807;BME280;37865;51.304;9.536;2023-06-14T04:58:05;100027.13;;;13.52;67.59
51807;BME280;37865;51.304;9.536;2023-06-14T05:00:31;100018.41;;;13.60;67.26
51807;BME280;37865;51.304;9.536;2023-06-14T05:02:56;100025.25;;;13.67;67.36
51807;BME280;37865;51.304;9.536;2023-06-14T05:05:22;100022.84;;;13.76;66.70
51807;BME280;37865;51.304;9.536;2023-06-14T05:07:47;100018.22;;;13.87;66.20
51807;BME280;37865;51.304;9.536;2023-06-14T05:10:13;100018.50;;;13.95;65.91
51807;BME280;37865;51.304;9.536;2023-06-14T05:12:38;100022.94;;;14.06;65.38
51807;BME280;37865;51.304;9.536;2023-06-14T05:15:04;100023.19;;;14.15;65.04
51807;BME280;37865;51.304;9.536;2023-06-14T05:17:30;100024.59;;;14.22;65.05
51807;BME280;37865;51.304;9.536;2023-06-14T05:19:55;100020.50;;;14.30;64.64
51807;BME280;37865;51.304;9.536;2023-06-14T05:22:21;100031.75;;;14.38;64.35
51807;BME280;37865;51.304;9.536;2023-06-14T05:24:46;100012.28;;;14.45;63.99
51807;BME280;37865;51.304;9.536;2023-06-14T05:27:13;100021.63;;;14.54;63.71
51807;BME280;37865;51.304;9.536;2023-06-14T05:29:38;100024.91;;;14.61;63.21
51807;BME280;37865;51.304;9.536;2023-06-14T05:32:04;100024.34;;;14.69;63.34
51807;BME280;37865;51.304;9.536;2023-06-14T05:34:30;100024.34;;;14.79;63.07
51807;BME280;37865;51.304;9.536;2023-06-14T05:36:55;100037.25;;;14.89;62.54
51807;BME280;37865;51.304;9.536;2023-06-14T05:39:20;100025.69;;;14.97;62.52
51807;BME280;37865;51.304;9.536;2023-06-14T05:41:46;100031.75;;;15.04;62.26
51807;BME280;37865;51.304;9.536;2023-06-14T05:44:11;100031.44;;;15.10;61.82
51807;BME280;37865;51.304;9.536;2023-06-14T05:46:36;100037.47;;;15.17;61.70
51807;BME280;37865;51.304;9.536;2023-06-14T05:49:02;100034.16;;;15.25;61.52
51807;BME280;37865;51.304;9.536;2023-06-14T05:51:27;100039.91;;;15.34;61.45
51807;BME280;37865;51.304;9.536;2023-06-14T05:53:52;100047.31;;;15.39;61.15
51807;BME280;37865;51.304;9.536;2023-06-14T05:56:18;100046.75;;;15.47;61.06
51807;BME280;37865;51.304;9.536;2023-06-14T05:58:44;100037.94;;;15.60;61.06
51807;BME280;37865;51.304;9.536;2023-06-14T06:01:10;100039.75;;;15.79;60.26
51807;BME280;37865;51.304;9.536;2023-06-14T06:03:35;100046.78;;;16.00;60.07
51807;BME280;37865;51.304;9.536;2023-06-14T06:06:01;100044.75;;;16.21;59.20
51807;BME280;37865;51.304;9.536;2023-06-14T06:08:28;100040.75;;;16.42;58.40
51807;BME280;37865;51.304;9.536;2023-06-14T06:10:54;100045.34;;;16.57;57.82
51807;BME280;37865;51.304;9.536;2023-06-14T06:13:19;100053.75;;;16.70;57.17
51807;BME280;37865;51.304;9.536;2023-06-14T06:15:44;100052.81;;;16.85;56.90
51807;BME280;37865;51.304;9.536;2023-06-14T06:18:10;100052.44;;;16.97;56.44
51807;BME280;37865;51.304;9.536;2023-06-14T06:20:35;100047.41;;;17.04;56.18
51807;BME280;37865;51.304;9.536;2023-06-14T06:23:01;100055.06;;;17.12;55.94
51807;BME280;37865;51.304;9.536;2023-06-14T06:25:27;100052.25;;;17.17;55.49
51807;BME280;37865;51.304;9.536;2023-06-14T06:27:53;100062.09;;;17.23;55.35
51807;BME280;37865;51.304;9.536;2023-06-14T06:30:19;100055.16;;;17.30;55.13
51807;BME280;37865;51.304;9.536;2023-06-14T06:32:45;100060.06;;;17.33;54.67
51807;BME280;37865;51.304;9.536;2023-06-14T06:35:11;100066.09;;;17.35;54.67
51807;BME280;37865;51.304;9.536;2023-06-14T06:37:36;100063.53;;;17.44;54.61
51807;BME280;37865;51.304;9.536;2023-06-14T06:40:02;100073.28;;;17.60;54.73
51807;BME280;37865;51.304;9.536;2023-06-14T06:42:31;100070.59;;;17.79;54.21
51807;BME280;37865;51.304;9.536;2023-06-14T06:44:56;100075.09;;;17.93;53.62
51807;BME280;37865;51.304;9.536;2023-06-14T06:47:21;100074.06;;;18.08;53.15
51807;BME280;37865;51.304;9.536;2023-06-14T06:49:47;100076.69;;;18.18;52.63
51807;BME280;37865;51.304;9.536;2023-06-14T06:52:13;100077.69;;;18.27;52.12
51807;BME280;37865;51.304;9.536;2023-06-14T06:54:38;100074.59;;;18.28;51.72
51807;BME280;37865;51.304;9.536;2023-06-14T06:57:04;100069.50;;;18.40;51.80
51807;BME280;37865;51.304;9.536;2023-06-14T06:59:31;100072.03;;;18.56;51.49
51807;BME280;37865;51.304;9.536;2023-06-14T07:01:56;100070.59;;;18.77;50.96
51807;BME280;37865;51.304;9.536;2023-06-14T07:04:21;100073.94;;;18.92;50.51
51807;BME280;37865;51.304;9.536;2023-06-14T07:06:47;100081.13;;;19.07;50.15
51807;BME280;37865;51.304;9.536;2023-06-14T07:09:12;100073.56;;;19.12;49.61
51807;BME280;37865;51.304;9.536;2023-06-14T07:11:40;100078.31;;;19.25;49.34
51807;BME280;37865;51.304;9.536;2023-06-14T07:14:05;100081.31;;;19.43;48.57
51807;BME280;37865;51.304;9.536;2023-06-14T07:16:31;100086.88;;;19.56;48.34
51807;BME280;37865;51.304;9.536;2023-06-14T07:18:57;100084.94;;;19.70;48.26
51807;BME280;37865;51.304;9.536;2023-06-14T07:21:22;100095.59;;;19.77;47.58
51807;BME280;37865;51.304;9.536;2023-06-14T07:23:47;100092.63;;;19.73;47.59
51807;BME280;37865;51.304;9.536;2023-06-14T07:26:13;100100.94;;;19.73;47.73
51807;BME280;37865;51.304;9.536;2023-06-14T07:28:38;100091.91;;;19.81;47.59
51807;BME280;37865;51.304;9.536;2023-06-14T07:31:03;100089.44;;;19.93;47.47
51807;BME280;37865;51.304;9.536;2023-06-14T07:33:28;100086.88;;;20.11;47.04
51807;BME280;37865;51.304;9.536;2023-06-14T07:35:54;100079.19;;;20.21;46.45
51807;BME280;37865;51.304;9.536;2023-06-14T07:38:19;100096.09;;;20.33;46.39
51807;BME280;37865;51.304;9.536;2023-06-14T07:40:44;100087.94;;;20.50;46.36
51807;BME280;37865;51.304;9.536;2023-06-14T07:43:10;100086.97;;;20.68;45.88
51807;BME280;37865;51.304;9.536;2023-06-14T07:45:36;100082.56;;;20.90;45.37
51807;BME280;37865;51.304;9.536;2023-06-14T07:48:02;100087.22;;;21.03;45.26
51807;BME280;37865;51.304;9.536;2023-06-14T07:50:28;100090.94;;;21.20;45.21
51807;BME280;37865;51.304;9.536;2023-06-14T07:52:53;100089.06;;;21.29;44.77
51807;BME280;37865;51.304;9.536;2023-06-14T07:55:19;100092.19;;;21.36;43.98
51807;BME280;37865;51.304;9.536;2023-06-14T07:57:44;100086.22;;;21.51;43.52
51807;BME280;37865;51.304;9.536;2023-06-14T08:00:10;100092.66;;;21.60;43.99
51807;BME280;37865;51.304;9.536;2023-06-14T08:02:39;100092.91;;;21.81;42.86
51807;BME280;37865;51.304;9.536;2023-06-14T08:05:05;100097.22;;;21.96;42.21
51807;BME280;37865;51.304;9.536;2023-06-14T08:07:30;100095.75;;;22.07;41.99
51807;BME280;37865;51.304;9.536;2023-06-14T08:09:55;100097.56;;;22.11;41.39
51807;BME280;37865;51.304;9.536;2023-06-14T08:12:20;100096.44;;;22.12;41.67
51807;BME280;37865;51.304;9.536;2023-06-14T08:14:46;100094.34;;;22.18;42.10
51807;BME280;37865;51.304;9.536;2023-06-14T08:17:11;100091.09;;;22.24;41.60
51807;BME280;37865;51.304;9.536;2023-06-14T08:19:36;100100.94;;;22.48;41.88
51807;BME280;37865;51.304;9.536;2023-06-14T08:22:02;100094.09;;;22.71;40.77
51807;BME280;37865;51.304;9.536;2023-06-14T08:24:28;100091.16;;;22.93;39.51
51807;BME280;37865;51.304;9.536;2023-06-14T08:26:54;100096.38;;;22.86;39.90
51807;BME280;37865;51.304;9.536;2023-06-14T08:29:19;100097.34;;;22.90;39.79
51807;BME280;37865;51.304;9.536;2023-06-14T08:31:45;100098.84;;;22.87;39.75
51807;BME280;37865;51.304;9.536;2023-06-14T08:34:10;100095.25;;;22.87;39.53
51807;BME280;37865;51.304;9.536;2023-06-14T08:36:36;100094.75;;;22.68;40.21
51807;BME280;37865;51.304;9.536;2023-06-14T08:39:01;100103.09;;;22.68;40.69
51807;BME280;37865;51.304;9.536;2023-06-14T08:41:28;100104.88;;;22.64;40.55
51807;BME280;37865;51.304;9.536;2023-06-14T08:43:54;100100.47;;;22.63;40.52
51807;BME280;37865;51.304;9.536;2023-06-14T08:46:20;100107.84;;;22.76;40.16
51807;BME280;37865;51.304;9.536;2023-06-14T08:48:52;100091.16;;;22.76;39.97
51807;BME280;37865;51.304;9.536;2023-06-14T08:51:20;100098.94;;;22.57;39.88
51807;BME280;37865;51.304;9.536;2023-06-14T08:53:52;100093.63;;;22.60;40.23
51807;BME280;37865;51.304;9.536;2023-06-14T08:56:18;100098.50;;;22.72;39.89
51807;BME280;37865;51.304;9.536;2023-06-14T08:58:46;100092.44;;;23.04;39.62
51807;BME280;37865;51.304;9.536;2023-06-14T09:01:13;100095.03;;;23.09;39.52
51807;BME280;37865;51.304;9.536;2023-06-14T09:03:41;100100.25;;;23.36;39.38
51807;BME280;37865;51.304;9.536;2023-06-14T09:06:07;100099.69;;;23.68;38.48
51807;BME280;37865;51.304;9.536;2023-06-14T09:08:34;100097.97;;;23.84;37.70
51807;BME280;37865;51.304;9.536;2023-06-14T09:11:01;100098.06;;;24.05;37.52
51807;BME280;37865;51.304;9.536;2023-06-14T09:13:27;100100.50;;;24.07;37.48
51807;BME280;37865;51.304;9.536;2023-06-14T09:15:52;100090.94;;;23.78;37.81
51807;BME280;37865;51.304;9.536;2023-06-14T09:18:17;100101.88;;;23.83;37.81
51807;BME280;37865;51.304;9.536;2023-06-14T09:20:45;100090.19;;;23.98;37.28
51807;BME280;37865;51.304;9.536;2023-06-14T09:23:12;100102.22;;;24.20;37.10
51807;BME280;37865;51.304;9.536;2023-06-14T09:25:42;100105.44;;;24.30;36.46
51807;BME280;37865;51.304;9.536;2023-06-14T09:28:08;100106.63;;;24.21;36.15
51807;BME280;37865;51.304;9.536;2023-06-14T09:30:36;100106.13;;;24.27;36.76
51807;BME280;37865;51.304;9.536;2023-06-14T09:33:01;100111.97;;;24.34;36.28
51807;BME280;37865;51.304;9.536;2023-06-14T09:35:27;100108.78;;;24.44;36.12
51807;BME280;37865;51.304;9.536;2023-06-14T09:37:55;100099.34;;;24.37;36.50
51807;BME280;37865;51.304;9.536;2023-06-14T09:40:20;100104.53;;;24.18;36.30
51807;BME280;37865;51.304;9.536;2023-06-14T09:42:46;100108.94;;;24.19;36.31
51807;BME280;37865;51.304;9.536;2023-06-14T09:45:12;100110.38;;;24.25;36.20
51807;BME280;37865;51.304;9.536;2023-06-14T09:47:39;100098.44;;;24.24;35.80
51807;BME280;37865;51.304;9.536;2023-06-14T09:50:05;100098.97;;;24.18;36.01
51807;BME280;37865;51.304;9.536;2023-06-14T09:52:31;100103.75;;;24.38;35.97
51807;BME280;37865;51.304;9.536;2023-06-14T09:54:59;100099.13;;;24.42;35.81
51807;BME280;37865;51.304;9.536;2023-06-14T09:57:25;100108.78;;;24.44;35.58
51807;BME280;37865;51.304;9.536;2023-06-14T09:59:57;100103.84;;;24.70;35.44
51807;BME280;37865;51.304;9.536;2023-06-14T10:02:29;100089.28;;;25.06;34.72
51807;BME280;37865;51.304;9.536;2023-06-14T10:05:04;100084.38;;;25.36;34.92
51807;BME280;37865;51.304;9.536;2023-06-14T10:07:35;100088.78;;;25.82;34.19
51807;BME280;37865;51.304;9.536;2023-06-14T10:10:04;100100.19;;;25.89;33.66
51807;BME280;37865;51.304;9.536;2023-06-14T10:12:30;100095.19;;;25.82;33.42
51807;BME280;37865;51.304;9.536;2023-06-14T10:14:55;100098.00;;;25.94;33.67
51807;BME280;37865;51.304;9.536;2023-06-14T10:17:26;100093.81;;;25.88;33.04
51807;BME280;37865;51.304;9.536;2023-06-14T10:20:25;100089.56;;;25.70;33.45
51807;BME280;37865;51.304;9.536;2023-06-14T10:23:01;100087.78;;;25.41;34.08
51807;BME280;37865;51.304;9.536;2023-06-14T10:25:30;100090.13;;;25.51;33.83
51807;BME280;37865;51.304;9.536;2023-06-14T10:33:29;100087.38;;;25.64;33.12
51807;BME280;37865;51.304;9.536;2023-06-14T10:36:31;100078.31;;;25.34;33.20
51807;BME280;37865;51.304;9.536;2023-06-14T10:38:58;100078.59;;;25.08;32.77
51807;BME280;37865;51.304;9.536;2023-06-14T10:41:26;100083.69;;;25.06;32.45
51807;BME280;37865;51.304;9.536;2023-06-14T10:44:10;100076.41;;;25.46;32.47
51807;BME280;37865;51.304;9.536;2023-06-14T10:46:53;100074.34;;;25.68;32.28
51807;BME280;37865;51.304;9.536;2023-06-14T10:49:19;100075.41;;;25.75;31.46
51807;BME280;37865;51.304;9.536;2023-06-14T10:51:46;100075.59;;;25.58;32.20
51807;BME280;37865;51.304;9.536;2023-06-14T10:54:15;100070.13;;;25.49;31.82
51807;BME280;37865;51.304;9.536;2023-06-14T10:56:53;100077.44;;;25.42;31.76
51807;BME280;37865;51.304;9.536;2023-06-14T10:59:20;100060.34;;;25.56;31.91
51807;BME280;37865;51.304;9.536;2023-06-14T11:04:49;100068.28;;;25.90;31.55
51807;BME280;37865;51.304;9.536;2023-06-14T11:12:48;100060.34;;;25.56;32.05
51807;BME280;37865;51.304;9.536;2023-06-14T11:15:14;100053.03;;;25.51;32.11
51807;BME280;37865;51.304;9.536;2023-06-14T11:17:39;100055.94;;;25.79;32.03
51807;BME280;37865;51.304;9.536;2023-06-14T11:20:09;100069.94;;;26.27;32.12
51807;BME280;37865;51.304;9.536;2023-06-14T11:22:45;100060.34;;;26.92;30.88
51807;BME280;37865;51.304;9.536;2023-06-14T11:25:14;100044.84;;;27.38;28.99
51807;BME280;37865;51.304;9.536;2023-06-14T11:27:42;100055.81;;;27.31;28.79
51807;BME280;37865;51.304;9.536;2023-06-14T11:30:08;100051.41;;;27.30;29.15
51807;BME280;37865;51.304;9.536;2023-06-14T11:32:35;100048.28;;;27.62;28.88
51807;BME280;37865;51.304;9.536;2023-06-14T11:35:00;100048.81;;;27.83;28.85
51807;BME280;37865;51.304;9.536;2023-06-14T11:37:29;100047.56;;;27.97;28.31
51807;BME280;37865;51.304;9.536;2023-06-14T11:39:57;100042.66;;;28.09;28.41
51807;BME280;37865;51.304;9.536;2023-06-14T11:42:24;100046.56;;;27.73;27.72
51807;BME280;37865;51.304;9.536;2023-06-14T11:44:49;100037.88;;;27.78;27.92
51807;BME280;37865;51.304;9.536;2023-06-14T11:47:15;100046.72;;;28.12;27.86
51807;BME280;37865;51.304;9.536;2023-06-14T11:49:40;100039.34;;;27.88;27.41
51807;BME280;37865;51.304;9.536;2023-06-14T11:52:07;100037.16;;;28.13;27.14
51807;BME280;37865;51.304;9.536;2023-06-14T11:54:32;100040.00;;;28.51;26.85
51807;BME280;37865;51.304;9.536;2023-06-14T11:56:58;100035.38;;;28.24;27.26
51807;BME280;37865;51.304;9.536;2023-06-14T11:59:24;100036.59;;;27.92;27.67
51807;BME280;37865;51.304;9.536;2023-06-14T12:01:50;100030.53;;;28.05;27.65
51807;BME280;37865;51.304;9.536;2023-06-14T12:04:24;100032.81;;;28.00;26.86
51807;BME280;37865;51.304;9.536;2023-06-14T12:06:52;100029.75;;;28.05;27.65
51807;BME280;37865;51.304;9.536;2023-06-14T12:09:18;100031.97;;;28.49;27.06
51807;BME280;37865;51.304;9.536;2023-06-14T12:11:45;100019.84;;;29.03;26.15
51807;BME280;37865;51.304;9.536;2023-06-14T12:14:10;100024.75;;;29.48;25.92
51807;BME280;37865;51.304;9.536;2023-06-14T12:16:38;100020.56;;;29.83;24.91
51807;BME280;37865;51.304;9.536;2023-06-14T12:19:15;100017.31;;;30.34;24.85
51807;BME280;37865;51.304;9.536;2023-06-14T12:21:41;100027.31;;;30.57;24.88
51807;BME280;37865;51.304;9.536;2023-06-14T12:24:07;100022.47;;;30.87;24.64
51807;BME280;37865;51.304;9.536;2023-06-14T12:26:33;100023.78;;;30.93;24.28
51807;BME280;37865;51.304;9.536;2023-06-14T12:28:59;100023.53;;;30.46;24.38
51807;BME280;37865;51.304;9.536;2023-06-14T12:31:25;100029.28;;;30.27;24.39
51807;BME280;37865;51.304;9.536;2023-06-14T12:33:50;100027.75;;;30.07;25.12
51807;BME280;37865;51.304;9.536;2023-06-14T12:36:16;100026.66;;;30.15;24.39
51807;BME280;37865;51.304;9.536;2023-06-14T12:38:42;100026.59;;;30.34;24.42
51807;BME280;37865;51.304;9.536;2023-06-14T12:41:07;100024.94;;;30.63;24.35
51807;BME280;37865;51.304;9.536;2023-06-14T12:43:33;100013.78;;;31.00;23.39
51807;BME280;37865;51.304;9.536;2023-06-14T12:45:59;100019.66;;;30.87;23.56
51807;BME280;37865;51.304;9.536;2023-06-14T12:48:25;100023.28;;;30.88;23.94
51807;BME280;37865;51.304;9.536;2023-06-14T12:50:52;100025.06;;;31.00;24.50
51807;BME280;37865;51.304;9.536;2023-06-14T12:53:18;100023.19;;;30.81;24.83
51807;BME280;37865;51.304;9.536;2023-06-14T12:55:44;100025.47;;;31.02;25.02
51807;BME280;37865;51.304;9.536;2023-06-14T12:58:10;100014.31;;;31.49;23.41
51807;BME280;37865;51.304;9.536;2023-06-14T13:00:37;100012.81;;;32.09;23.35
51807;BME280;37865;51.304;9.536;2023-06-14T13:03:02;100014.56;;;32.31;22.89
51807;BME280;37865;51.304;9.536;2023-06-14T13:05:28;100013.78;;;32.41;22.88
51807;BME280;37865;51.304;9.536;2023-06-14T13:07:53;100011.78;;;31.81;23.47
51807;BME280;37865;51.304;9.536;2023-06-14T13:10:18;100009.28;;;31.72;23.78